sensor_id;sensor_type;location;lat;lon;timestamp;pressure;altitude;pressure_sealevel;temperature;humidity
59106;BME280;44891;50.204;8.132;2022-08-19T00:01:11;97938.78;;;20.86;67.81
59106;BME280;44891;50.204;8.132;2022-08-19T00:05:16;97942.69;;;20.89;67.59
59106;BME280;44891;50.204;8.132;2022-08-19T00:09:19;97937.22;;;20.94;67.07
59106;BME280;44891;50.204;8.132;2022-08-19T00:13:21;97944.13;;;20.86;67.84
59106;BME280;44891;50.204;8.132;2022-08-19T00:17:23;97960.09;;;20.78;68.34
59106;BME280;44891;50.204;8.132;2022-08-19T00:21:27;97956.44;;;20.56;68.92
59106;BME280;44891;50.204;8.132;2022-08-19T00:25:29;97955.97;;;20.63;68.55
59106;BME280;44891;50.204;8.132;2022-08-19T00:29:31;97932.63;;;20.69;68.16
59106;BME280;44891;50.204;8.132;2022-08-19T00:33:33;97950.06;;;20.75;68.54
59106;BME280;44891;50.204;8.132;2022-08-19T00:37:38;97941.88;;;20.80;68.29
59106;BME280;44891;50.204;8.132;2022-08-19T00:41:45;97936.06;;;20.78;69.03
59106;BME280;44891;50.204;8.132;2022-08-19T00:45:48;97940.94;;;20.67;69.79
59106;BME280;44891;50.204;8.132;2022-08-19T00:49:53;97936.06;;;20.60;70.40
59106;BME280;44891;50.204;8.132;2022-08-19T00:53:59;97935.59;;;20.67;69.76
59106;BME280;44891;50.204;8.132;2022-08-19T00:58:06;97942.50;;;20.68;69.01
59106;BME280;44891;50.204;8.132;2022-08-19T01:02:09;97933.06;;;20.62;68.91
59106;BME280;44891;50.204;8.132;2022-08-19T01:06:11;97923.50;;;20.70;68.34
59106;BME280;44891;50.204;8.132;2022-08-19T01:10:18;97921.75;;;20.65;68.53
59106;BME280;44891;50.204;8.132;2022-08-19T01:14:21;97921.44;;;20.67;67.90
59106;BME280;44891;50.204;8.132;2022-08-19T01:18:24;97906.53;;;20.66;68.01
59106;BME280;44891;50.204;8.132;2022-08-19T01:22:30;97905.88;;;20.60;68.59
59106;BME280;44891;50.204;8.132;2022-08-19T01:26:39;97900.81;;;20.41;69.97
59106;BME280;44891;50.204;8.132;2022-08-19T01:30:42;97903.69;;;20.53;69.57
59106;BME280;44891;50.204;8.132;2022-08-19T01:34:44;97899.75;;;20.51;68.83
59106;BME280;44891;50.204;8.132;2022-08-19T01:38:48;97898.75;;;20.38;69.36
59106;BME280;44891;50.204;8.132;2022-08-19T01:42:52;97893.56;;;20.33;69.91
59106;BME280;44891;50.204;8.132;2022-08-19T01:46:54;97885.38;;;20.21;70.68
59106;BME280;44891;50.204;8.132;2022-08-19T01:50:57;97882.53;;;20.17;71.20
59106;BME280;44891;50.204;8.132;2022-08-19T01:55:00;97887.19;;;20.03;72.60
59106;BME280;44891;50.204;8.132;2022-08-19T01:59:05;97891.88;;;19.97;71.93
59106;BME280;44891;50.204;8.132;2022-08-19T02:03:11;97899.22;;;20.00;72.42
59106;BME280;44891;50.204;8.132;2022-08-19T02:07:13;97912.44;;;20.05;71.85
59106;BME280;44891;50.204;8.132;2022-08-19T02:11:21;97916.50;;;20.03;71.24
59106;BME280;44891;50.204;8.132;2022-08-19T02:15:24;97908.81;;;20.01;71.80
59106;BME280;44891;50.204;8.132;2022-08-19T02:19:26;97907.28;;;20.09;72.25
59106;BME280;44891;50.204;8.132;2022-08-19T02:23:28;97895.63;;;19.96;72.88
59106;BME280;44891;50.204;8.132;2022-08-19T02:27:32;97903.78;;;20.00;72.32
59106;BME280;44891;50.204;8.132;2022-08-19T02:31:34;97911.16;;;19.94;72.86
59106;BME280;44891;50.204;8.132;2022-08-19T02:35:36;97915.97;;;19.92;72.88
59106;BME280;44891;50.204;8.132;2022-08-19T02:39:38;97910.41;;;19.80;73.32
59106;BME280;44891;50.204;8.132;2022-08-19T02:43:42;97911.16;;;19.72;73.89
59106;BME280;44891;50.204;8.132;2022-08-19T02:47:44;97917.13;;;19.69;73.54
59106;BME280;44891;50.204;8.132;2022-08-19T02:51:46;97924.59;;;19.67;73.09
59106;BME280;44891;50.204;8.132;2022-08-19T02:55:49;97924.47;;;19.49;73.88
59106;BME280;44891;50.204;8.132;2022-08-19T02:59:53;97930.25;;;19.65;72.55
59106;BME280;44891;50.204;8.132;2022-08-19T03:03:56;97937.75;;;19.63;72.54
59106;BME280;44891;50.204;8.132;2022-08-19T03:07:58;97935.25;;;19.67;72.81
59106;BME280;44891;50.204;8.132;2022-08-19T03:12:02;97946.75;;;19.53;74.28
59106;BME280;44891;50.204;8.132;2022-08-19T03:16:06;97942.97;;;19.32;75.04
59106;BME280;44891;50.204;8.132;2022-08-19T03:20:08;97935.44;;;19.48;74.51
59106;BME280;44891;50.204;8.132;2022-08-19T03:24:11;97933.06;;;19.46;74.67
59106;BME280;44891;50.204;8.132;2022-08-19T03:28:14;97933.47;;;19.40;74.66
59106;BME280;44891;50.204;8.132;2022-08-19T03:32:18;97923.94;;;19.39;74.84
59106;BME280;44891;50.204;8.132;2022-08-19T03:36:22;97929.66;;;19.32;74.97
59106;BME280;44891;50.204;8.132;2022-08-19T03:40:25;97930.97;;;19.35;74.72
59106;BME280;44891;50.204;8.132;2022-08-19T03:44:28;97930.03;;;19.17;75.68
59106;BME280;44891;50.204;8.132;2022-08-19T03:48:33;97925.13;;;19.10;75.86
59106;BME280;44891;50.204;8.132;2022-08-19T03:52:35;97924.69;;;18.81;77.41
59106;BME280;44891;50.204;8.132;2022-08-19T03:56:39;97931.38;;;18.78;77.46
59106;BME280;44891;50.204;8.132;2022-08-19T04:00:42;97934.06;;;18.78;76.69
59106;BME280;44891;50.204;8.132;2022-08-19T04:04:45;97934.44;;;18.85;76.70
59106;BME280;44891;50.204;8.132;2022-08-19T04:08:49;97943.00;;;18.68;77.31
59106;BME280;44891;50.204;8.132;2022-08-19T04:12:51;97949.44;;;18.67;77.24
59106;BME280;44891;50.204;8.132;2022-08-19T04:16:54;97954.41;;;18.55;77.67
59106;BME280;44891;50.204;8.132;2022-08-19T04:20:57;97957.00;;;18.46;78.25
59106;BME280;44891;50.204;8.132;2022-08-19T04:24:59;97965.66;;;18.38;77.98
59106;BME280;44891;50.204;8.132;2022-08-19T04:29:04;97964.28;;;18.41;77.94
59106;BME280;44891;50.204;8.132;2022-08-19T04:33:07;97949.59;;;18.16;79.57
59106;BME280;44891;50.204;8.132;2022-08-19T04:37:10;97957.97;;;18.23;78.97
59106;BME280;44891;50.204;8.132;2022-08-19T04:41:13;97948.59;;;18.12;79.15
59106;BME280;44891;50.204;8.132;2022-08-19T04:45:36;97953.03;;;18.16;77.87
59106;BME280;44891;50.204;8.132;2022-08-19T04:49:38;97958.16;;;18.27;78.11
59106;BME280;44891;50.204;8.132;2022-08-19T04:53:42;97964.88;;;18.24;78.29
59106;BME280;44891;50.204;8.132;2022-08-19T04:57:44;97966.03;;;18.18;78.04
59106;BME280;44891;50.204;8.132;2022-08-19T05:01:47;97959.22;;;18.12;77.95
59106;BME280;44891;50.204;8.132;2022-08-19T05:05:50;97969.06;;;18.11;78.04
59106;BME280;44891;50.204;8.132;2022-08-19T05:09:54;97965.78;;;18.01;78.93
59106;BME280;44891;50.204;8.132;2022-08-19T05:13:57;97957.25;;;18.04;78.39
59106;BME280;44891;50.204;8.132;2022-08-19T05:17:59;97972.53;;;18.12;78.32
59106;BME280;44891;50.204;8.132;2022-08-19T05:22:19;97983.31;;;18.02;79.24
59106;BME280;44891;50.204;8.132;2022-08-19T05:26:38;97982.84;;;18.13;78.49
59106;BME280;44891;50.204;8.132;2022-08-19T05:30:40;97982.84;;;18.13;78.47
59106;BME280;44891;50.204;8.132;2022-08-19T05:34:45;97981.41;;;18.35;78.42
59106;BME280;44891;50.204;8.132;2022-08-19T05:38:47;97985.94;;;18.48;77.97
59106;BME280;44891;50.204;8.132;2022-08-19T05:42:52;97971.38;;;18.45;77.81
59106;BME280;44891;50.204;8.132;2022-08-19T05:46:54;97973.84;;;18.56;77.42
59106;BME280;44891;50.204;8.132;2022-08-19T05:50:56;97965.56;;;18.57;77.24
59106;BME280;44891;50.204;8.132;2022-08-19T05:54:59;97966.38;;;18.85;76.47
59106;BME280;44891;50.204;8.132;2022-08-19T05:59:02;97983.69;;;18.96;75.55
59106;BME280;44891;50.204;8.132;2022-08-19T06:03:04;97981.00;;;19.10;75.65
59106;BME280;44891;50.204;8.132;2022-08-19T06:07:06;97981.47;;;19.26;75.41
59106;BME280;44891;50.204;8.132;2022-08-19T06:11:14;97990.13;;;19.32;75.58
59106;BME280;44891;50.204;8.132;2022-08-19T06:15:18;98003.28;;;19.50;74.96
59106;BME280;44891;50.204;8.132;2022-08-19T06:19:22;98002.97;;;19.66;74.53
59106;BME280;44891;50.204;8.132;2022-08-19T06:23:25;98016.00;;;19.90;74.20
59106;BME280;44891;50.204;8.132;2022-08-19T06:27:27;98009.75;;;19.94;74.10
59106;BME280;44891;50.204;8.132;2022-08-19T06:31:34;98027.16;;;20.45;71.87
59106;BME280;44891;50.204;8.132;2022-08-19T06:35:38;98032.72;;;20.66;71.18
59106;BME280;44891;50.204;8.132;2022-08-19T06:39:42;98023.38;;;20.86;70.79
59106;BME280;44891;50.204;8.132;2022-08-19T06:43:45;98027.06;;;21.07;70.23
59106;BME280;44891;50.204;8.132;2022-08-19T06:47:52;98028.19;;;21.24;69.51
59106;BME280;44891;50.204;8.132;2022-08-19T06:51:55;98039.25;;;21.39;68.60
59106;BME280;44891;50.204;8.132;2022-08-19T06:55:58;98045.84;;;21.51;68.86
59106;BME280;44891;50.204;8.132;2022-08-19T07:00:04;98043.34;;;21.71;67.46
59106;BME280;44891;50.204;8.132;2022-08-19T07:04:09;98041.47;;;21.81;67.52
59106;BME280;44891;50.204;8.132;2022-08-19T07:08:12;98056.41;;;21.73;67.95
59106;BME280;44891;50.204;8.132;2022-08-19T07:12:14;98051.53;;;22.10;66.33
59106;BME280;44891;50.204;8.132;2022-08-19T07:16:17;98047.75;;;22.11;66.10
59106;BME280;44891;50.204;8.132;2022-08-19T07:20:22;98048.66;;;22.23;66.83
59106;BME280;44891;50.204;8.132;2022-08-19T07:24:25;98052.94;;;21.90;67.13
59106;BME280;44891;50.204;8.132;2022-08-19T07:28:28;98050.41;;;22.19;66.65
59106;BME280;44891;50.204;8.132;2022-08-19T07:32:32;98053.03;;;22.45;65.59
59106;BME280;44891;50.204;8.132;2022-08-19T07:36:38;98062.81;;;22.33;65.54
59106;BME280;44891;50.204;8.132;2022-08-19T07:40:41;98057.75;;;22.31;65.63
59106;BME280;44891;50.204;8.132;2022-08-19T07:44:44;98052.44;;;22.22;65.48
59106;BME280;44891;50.204;8.132;2022-08-19T07:48:48;98044.56;;;22.17;66.38
59106;BME280;44891;50.204;8.132;2022-08-19T07:52:52;98054.16;;;22.36;65.22
59106;BME280;44891;50.204;8.132;2022-08-19T07:56:55;98054.91;;;22.45;65.41
59106;BME280;44891;50.204;8.132;2022-08-19T08:00:57;98056.06;;;22.18;66.47
59106;BME280;44891;50.204;8.132;2022-08-19T08:04:59;98051.94;;;22.29;65.45
59106;BME280;44891;50.204;8.132;2022-08-19T08:09:23;98064.69;;;22.41;64.85
59106;BME280;44891;50.204;8.132;2022-08-19T08:13:25;98054.56;;;22.55;64.94
59106;BME280;44891;50.204;8.132;2022-08-19T08:17:29;98046.19;;;22.57;64.71
59106;BME280;44891;50.204;8.132;2022-08-19T08:21:32;98066.22;;;22.59;64.86
59106;BME280;44891;50.204;8.132;2022-08-19T08:25:36;98061.84;;;22.46;65.49
59106;BME280;44891;50.204;8.132;2022-08-19T08:29:38;98064.56;;;22.75;64.59
59106;BME280;44891;50.204;8.132;2022-08-19T08:33:41;98075.25;;;22.93;63.75
59106;BME280;44891;50.204;8.132;2022-08-19T08:37:44;98076.38;;;22.74;64.34
59106;BME280;44891;50.204;8.132;2022-08-19T08:41:53;98088.19;;;22.73;64.81
59106;BME280;44891;50.204;8.132;2022-08-19T08:46:00;98084.63;;;22.61;64.50
59106;BME280;44891;50.204;8.132;2022-08-19T08:50:05;98086.34;;;23.12;62.62
59106;BME280;44891;50.204;8.132;2022-08-19T08:54:12;98080.31;;;23.15;62.82
59106;BME280;44891;50.204;8.132;2022-08-19T08:58:20;98085.84;;;23.40;60.65
59106;BME280;44891;50.204;8.132;2022-08-19T09:02:26;98085.25;;;23.34;61.28
59106;BME280;44891;50.204;8.132;2022-08-19T09:06:32;98095.94;;;23.13;62.67
59106;BME280;44891;50.204;8.132;2022-08-19T09:10:39;98094.22;;;23.09;62.37
59106;BME280;44891;50.204;8.132;2022-08-19T09:14:48;98086.94;;;23.18;62.14
59106;BME280;44891;50.204;8.132;2022-08-19T09:18:54;98065.69;;;23.13;62.48
59106;BME280;44891;50.204;8.132;2022-08-19T09:22:58;98075.41;;;23.17;61.87
59106;BME280;44891;50.204;8.132;2022-08-19T09:27:00;98087.47;;;23.62;60.62
59106;BME280;44891;50.204;8.132;2022-08-19T09:31:04;98083.03;;;23.57;59.53
59106;BME280;44891;50.204;8.132;2022-08-19T09:35:07;98069.63;;;23.57;59.45
59106;BME280;44891;50.204;8.132;2022-08-19T09:39:09;98071.03;;;24.05;58.49
59106;BME280;44891;50.204;8.132;2022-08-19T09:43:12;98071.38;;;23.82;58.40
59106;BME280;44891;50.204;8.132;2022-08-19T09:47:15;98058.00;;;23.95;58.07
59106;BME280;44891;50.204;8.132;2022-08-19T09:51:20;98058.84;;;24.40;55.22
59106;BME280;44891;50.204;8.132;2022-08-19T09:55:23;98055.53;;;24.44;54.57
59106;BME280;44891;50.204;8.132;2022-08-19T09:59:25;98050.75;;;24.28;54.49
59106;BME280;44891;50.204;8.132;2022-08-19T10:03:30;98050.97;;;24.93;52.67
59106;BME280;44891;50.204;8.132;2022-08-19T10:07:33;98046.34;;;24.45;54.20
59106;BME280;44891;50.204;8.132;2022-08-19T10:11:36;98038.00;;;24.83;53.11
59106;BME280;44891;50.204;8.132;2022-08-19T10:15:38;98036.78;;;25.17;51.83
59106;BME280;44891;50.204;8.132;2022-08-19T10:19:42;98042.34;;;24.75;52.75
59106;BME280;44891;50.204;8.132;2022-08-19T10:23:46;98040.69;;;25.07;51.07
59106;BME280;44891;50.204;8.132;2022-08-19T10:27:50;98043.22;;;24.67;52.00
59106;BME280;44891;50.204;8.132;2022-08-19T10:31:53;98040.75;;;24.62;50.61
59106;BME280;44891;50.204;8.132;2022-08-19T10:36:00;98041.09;;;24.48;50.86
59106;BME280;44891;50.204;8.132;2022-08-19T10:40:03;98040.22;;;24.81;49.30
59106;BME280;44891;50.204;8.132;2022-08-19T10:44:08;98043.78;;;25.34;48.99
59106;BME280;44891;50.204;8.132;2022-08-19T10:48:10;98037.75;;;24.88;49.56
59106;BME280;44891;50.204;8.132;2022-08-19T10:52:14;98026.22;;;25.36;47.46
59106;BME280;44891;50.204;8.132;2022-08-19T10:56:35;98018.69;;;25.82;45.95
59106;BME280;44891;50.204;8.132;2022-08-19T11:00:58;98020.72;;;25.73;46.32
59106;BME280;44891;50.204;8.132;2022-08-19T11:05:00;98017.50;;;25.95;45.78
59106;BME280;44891;50.204;8.132;2022-08-19T11:09:04;98019.31;;;26.35;43.25
59106;BME280;44891;50.204;8.132;2022-08-19T11:13:06;98018.72;;;26.58;42.52
59106;BME280;44891;50.204;8.132;2022-08-19T11:17:08;98002.03;;;26.83;42.75
59106;BME280;44891;50.204;8.132;2022-08-19T11:21:14;98003.06;;;26.95;43.09
59106;BME280;44891;50.204;8.132;2022-08-19T11:25:19;97995.06;;;27.53;41.66
59106;BME280;44891;50.204;8.132;2022-08-19T11:29:21;97999.59;;;27.49;42.12
59106;BME280;44891;50.204;8.132;2022-08-19T11:33:26;98003.84;;;27.30;42.77
59106;BME280;44891;50.204;8.132;2022-08-19T11:37:28;98007.88;;;26.70;41.51
59106;BME280;44891;50.204;8.132;2022-08-19T11:41:32;98003.38;;;26.93;41.74
59106;BME280;44891;50.204;8.132;2022-08-19T11:45:34;97997.84;;;26.86;41.06
59106;BME280;44891;50.204;8.132;2022-08-19T11:49:36;97997.94;;;26.90;41.36
59106;BME280;44891;50.204;8.132;2022-08-19T11:53:38;97978.38;;;27.28;41.09
59106;BME280;44891;50.204;8.132;2022-08-19T11:57:42;97980.00;;;27.52;41.47
59106;BME280;44891;50.204;8.132;2022-08-19T12:01:44;97989.47;;;26.91;42.17
59106;BME280;44891;50.204;8.132;2022-08-19T12:05:47;97971.50;;;27.50;39.79
59106;BME280;44891;50.204;8.132;2022-08-19T12:09:49;97969.13;;;27.09;40.10
59106;BME280;44891;50.204;8.132;2022-08-19T12:13:53;97963.41;;;27.30;40.71
59106;BME280;44891;50.204;8.132;2022-08-19T12:17:56;97951.19;;;27.36;40.19
59106;BME280;44891;50.204;8.132;2022-08-19T12:22:00;97951.97;;;27.56;39.49
59106;BME280;44891;50.204;8.132;2022-08-19T12:26:04;97941.41;;;27.48;39.51
59106;BME280;44891;50.204;8.132;2022-08-19T12:30:11;97939.22;;;27.34;39.00
59106;BME280;44891;50.204;8.132;2022-08-19T12:34:13;97943.31;;;27.47;37.93
59106;BME280;44891;50.204;8.132;2022-08-19T12:38:16;97951.38;;;27.86;36.19
59106;BME280;44891;50.204;8.132;2022-08-19T12:42:18;97956.59;;;27.98;37.66
59106;BME280;44891;50.204;8.132;2022-08-19T12:46:24;97961.19;;;27.17;39.75
59106;BME280;44891;50.204;8.132;2022-08-19T12:50:26;97967.25;;;26.94;39.72
59106;BME280;44891;50.204;8.132;2022-08-19T12:54:29;97961.53;;;27.92;38.95
59106;BME280;44891;50.204;8.132;2022-08-19T12:58:31;97965.56;;;28.02;37.76
59106;BME280;44891;50.204;8.132;2022-08-19T13:02:37;97963.84;;;28.36;37.68
59106;BME280;44891;50.204;8.132;2022-08-19T13:06:39;97962.78;;;28.67;37.35
59106;BME280;44891;50.204;8.132;2022-08-19T13:10:41;97959.66;;;27.97;38.78
59106;BME280;44891;50.204;8.132;2022-08-19T13:14:43;97957.06;;;28.46;37.76
59106;BME280;44891;50.204;8.132;2022-08-19T13:18:52;97957.63;;;28.85;36.66
59106;BME280;44891;50.204;8.132;2022-08-19T13:22:54;97960.41;;;28.16;38.03
59106;BME280;44891;50.204;8.132;2022-08-19T13:26:58;97948.78;;;29.15;36.37
59106;BME280;44891;50.204;8.132;2022-08-19T13:31:01;97951.88;;;28.87;37.13
59106;BME280;44891;50.204;8.132;2022-08-19T13:35:33;97952.09;;;29.01;36.30
59106;BME280;44891;50.204;8.132;2022-08-19T13:39:35;97954.34;;;29.93;34.67
59106;BME280;44891;50.204;8.132;2022-08-19T13:43:37;97962.44;;;30.81;34.42
59106;BME280;44891;50.204;8.132;2022-08-19T13:47:40;97961.44;;;30.08;34.31
59106;BME280;44891;50.204;8.132;2022-08-19T13:51:46;97953.91;;;28.93;36.89
59106;BME280;44891;50.204;8.132;2022-08-19T13:55:48;97961.88;;;29.76;34.85
59106;BME280;44891;50.204;8.132;2022-08-19T13:59:51;97959.16;;;29.43;34.36
59106;BME280;44891;50.204;8.132;2022-08-19T14:03:53;97965.53;;;29.54;34.42
59106;BME280;44891;50.204;8.132;2022-08-19T14:07:57;97962.56;;;30.48;33.46
59106;BME280;44891;50.204;8.132;2022-08-19T14:11:59;97964.00;;;29.57;34.23
59106;BME280;44891;50.204;8.132;2022-08-19T14:16:06;97970.88;;;29.20;35.43
59106;BME280;44891;50.204;8.132;2022-08-19T14:20:10;97967.75;;;29.18;35.53
59106;BME280;44891;50.204;8.132;2022-08-19T14:24:14;97973.38;;;30.44;33.52
59106;BME280;44891;50.204;8.132;2022-08-19T14:28:16;97968.41;;;30.57;33.42
59106;BME280;44891;50.204;8.132;2022-08-19T14:32:18;97964.97;;;30.60;32.65
59106;BME280;44891;50.204;8.132;2022-08-19T14:36:21;97967.72;;;30.16;32.98
59106;BME280;44891;50.204;8.132;2022-08-19T14:40:27;97975.31;;;30.99;31.27
59106;BME280;44891;50.204;8.132;2022-08-19T14:44:30;97981.09;;;30.94;31.43
59106;BME280;44891;50.204;8.132;2022-08-19T14:48:34;97969.72;;;30.70;31.74
59106;BME280;44891;50.204;8.132;2022-08-19T14:52:37;97974.94;;;32.02;30.55
59106;BME280;44891;50.204;8.132;2022-08-19T14:56:41;97964.72;;;33.34;28.24
59106;BME280;44891;50.204;8.132;2022-08-19T15:00:44;97963.81;;;34.73;26.99
59106;BME280;44891;50.204;8.132;2022-08-19T15:04:46;97957.78;;;33.19;28.66
59106;BME280;44891;50.204;8.132;2022-08-19T15:08:48;97955.56;;;32.00;30.81
59106;BME280;44891;50.204;8.132;2022-08-19T15:12:53;97949.63;;;31.62;30.75
59106;BME280;44891;50.204;8.132;2022-08-19T15:16:55;97956.19;;;31.54;30.54
59106;BME280;44891;50.204;8.132;2022-08-19T15:20:57;97948.06;;;34.02;27.41
59106;BME280;44891;50.204;8.132;2022-08-19T15:25:00;97943.47;;;33.85;27.91
59106;BME280;44891;50.204;8.132;2022-08-19T15:29:04;97930.31;;;35.72;25.70
59106;BME280;44891;50.204;8.132;2022-08-19T15:33:06;97924.66;;;33.45;28.00
59106;BME280;44891;50.204;8.132;2022-08-19T15:37:08;97923.72;;;35.42;25.68
59106;BME280;44891;50.204;8.132;2022-08-19T15:41:17;97912.75;;;35.73;25.03
59106;BME280;44891;50.204;8.132;2022-08-19T15:45:27;97899.47;;;35.13;25.58
59106;BME280;44891;50.204;8.132;2022-08-19T15:49:32;97912.03;;;34.28;26.96
59106;BME280;44891;50.204;8.132;2022-08-19T15:53:34;97904.84;;;34.04;26.84
59106;BME280;44891;50.204;8.132;2022-08-19T15:57:36;97901.13;;;32.92;28.32
59106;BME280;44891;50.204;8.132;2022-08-19T16:01:57;97905.88;;;32.28;28.81
59106;BME280;44891;50.204;8.132;2022-08-19T16:06:17;97911.28;;;29.84;32.35
59106;BME280;44891;50.204;8.132;2022-08-19T16:10:29;97908.56;;;30.76;31.02
59106;BME280;44891;50.204;8.132;2022-08-19T16:14:34;97922.28;;;30.02;31.62
59106;BME280;44891;50.204;8.132;2022-08-19T16:18:40;97922.53;;;30.30;31.71
59106;BME280;44891;50.204;8.132;2022-08-19T16:22:42;97918.16;;;30.12;31.44
59106;BME280;44891;50.204;8.132;2022-08-19T16:26:45;97928.69;;;30.20;31.59
59106;BME280;44891;50.204;8.132;2022-08-19T16:30:48;97929.72;;;29.34;33.29
59106;BME280;44891;50.204;8.132;2022-08-19T16:34:51;97925.38;;;28.96;33.57
59106;BME280;44891;50.204;8.132;2022-08-19T16:38:54;97928.78;;;29.53;32.63
59106;BME280;44891;50.204;8.132;2022-08-19T16:42:56;97929.47;;;29.13;33.56
59106;BME280;44891;50.204;8.132;2022-08-19T16:46:58;97923.69;;;28.88;34.15
59106;BME280;44891;50.204;8.132;2022-08-19T16:51:02;97926.88;;;29.23;33.28
59106;BME280;44891;50.204;8.132;2022-08-19T16:55:08;97929.34;;;29.36;32.92
59106;BME280;44891;50.204;8.132;2022-08-19T16:59:10;97944.38;;;29.03;33.18
59106;BME280;44891;50.204;8.132;2022-08-19T17:03:13;97957.59;;;29.08;33.41
59106;BME280;44891;50.204;8.132;2022-08-19T17:07:16;97951.03;;;28.83;33.47
59106;BME280;44891;50.204;8.132;2022-08-19T17:11:20;97949.84;;;28.31;35.17
59106;BME280;44891;50.204;8.132;2022-08-19T17:15:23;97958.56;;;27.59;36.54
59106;BME280;44891;50.204;8.132;2022-08-19T17:19:25;97964.88;;;27.08;37.51
59106;BME280;44891;50.204;8.132;2022-08-19T17:23:29;97962.75;;;27.37;37.69
59106;BME280;44891;50.204;8.132;2022-08-19T17:27:31;97974.56;;;27.48;37.36
59106;BME280;44891;50.204;8.132;2022-08-19T17:31:35;97967.66;;;27.51;37.33
59106;BME280;44891;50.204;8.132;2022-08-19T17:35:38;97974.03;;;26.88;37.59
59106;BME280;44891;50.204;8.132;2022-08-19T17:39:44;97969.81;;;26.40;38.67
59106;BME280;44891;50.204;8.132;2022-08-19T17:43:46;97968.59;;;26.69;38.04
59106;BME280;44891;50.204;8.132;2022-08-19T17:47:49;97980.38;;;26.33;38.82
59106;BME280;44891;50.204;8.132;2022-08-19T17:51:51;97982.13;;;26.25;39.01
59106;BME280;44891;50.204;8.132;2022-08-19T17:55:54;97983.81;;;26.01;39.36
59106;BME280;44891;50.204;8.132;2022-08-19T17:59:57;97979.50;;;26.13;39.10
59106;BME280;44891;50.204;8.132;2022-08-19T18:03:59;97982.38;;;26.20;39.24
59106;BME280;44891;50.204;8.132;2022-08-19T18:08:02;97982.53;;;26.11;39.25
59106;BME280;44891;50.204;8.132;2022-08-19T18:12:08;97984.16;;;26.00;39.65
59106;BME280;44891;50.204;8.132;2022-08-19T18:16:11;97995.25;;;25.83;39.92
59106;BME280;44891;50.204;8.132;2022-08-19T18:20:14;98006.75;;;25.55;40.57
59106;BME280;44891;50.204;8.132;2022-08-19T18:24:18;98013.84;;;25.47;41.39
59106;BME280;44891;50.204;8.132;2022-08-19T18:28:21;98025.28;;;25.44;41.02
59106;BME280;44891;50.204;8.132;2022-08-19T18:32:26;98029.16;;;25.19;41.93
59106;BME280;44891;50.204;8.132;2022-08-19T18:36:28;98025.81;;;25.10;42.16
59106;BME280;44891;50.204;8.132;2022-08-19T18:40:30;98021.75;;;25.04;42.30
59106;BME280;44891;50.204;8.132;2022-08-19T18:44:51;98031.81;;;24.94;42.75
59106;BME280;44891;50.204;8.132;2022-08-19T18:49:14;98038.31;;;24.81;42.85
59106;BME280;44891;50.204;8.132;2022-08-19T18:53:17;98051.28;;;24.55;43.64
59106;BME280;44891;50.204;8.132;2022-08-19T18:57:19;98051.16;;;24.51;43.73
59106;BME280;44891;50.204;8.132;2022-08-19T19:01:28;98056.75;;;24.46;44.07
59106;BME280;44891;50.204;8.132;2022-08-19T19:05:30;98064.63;;;24.30;44.74
59106;BME280;44891;50.204;8.132;2022-08-19T19:09:34;98068.06;;;24.19;45.08
59106;BME280;44891;50.204;8.132;2022-08-19T19:13:37;98059.91;;;23.94;45.69
59106;BME280;44891;50.204;8.132;2022-08-19T19:17:42;98082.47;;;24.14;45.35
59106;BME280;44891;50.204;8.132;2022-08-19T19:21:46;98082.59;;;23.97;45.36
59106;BME280;44891;50.204;8.132;2022-08-19T19:25:49;98078.34;;;23.96;45.61
59106;BME280;44891;50.204;8.132;2022-08-19T19:29:52;98088.31;;;23.95;45.79
59106;BME280;44891;50.204;8.132;2022-08-19T19:33:55;98091.50;;;23.88;45.73
59106;BME280;44891;50.204;8.132;2022-08-19T19:37:58;98098.53;;;23.81;45.91
59106;BME280;44891;50.204;8.132;2022-08-19T19:42:05;98109.28;;;23.51;47.40
59106;BME280;44891;50.204;8.132;2022-08-19T19:46:09;98117.25;;;23.30;47.63
59106;BME280;44891;50.204;8.132;2022-08-19T19:50:15;98128.19;;;22.78;48.94
59106;BME280;44891;50.204;8.132;2022-08-19T19:54:17;98133.06;;;22.85;49.04
59106;BME280;44891;50.204;8.132;2022-08-19T19:58:20;98119.84;;;22.80;49.59
59106;BME280;44891;50.204;8.132;2022-08-19T20:02:22;98130.16;;;22.52;50.23
59106;BME280;44891;50.204;8.132;2022-08-19T20:06:27;98125.75;;;22.39;50.83
59106;BME280;44891;50.204;8.132;2022-08-19T20:10:29;98134.56;;;22.31;51.51
59106;BME280;44891;50.204;8.132;2022-08-19T20:14:33;98138.34;;;22.30;51.22
59106;BME280;44891;50.204;8.132;2022-08-19T20:18:36;98136.63;;;22.16;51.67
59106;BME280;44891;50.204;8.132;2022-08-19T20:22:40;98134.09;;;22.11;52.05
59106;BME280;44891;50.204;8.132;2022-08-19T20:26:44;98142.56;;;22.05;52.54
59106;BME280;44891;50.204;8.132;2022-08-19T20:30:47;98147.47;;;21.94;52.59
59106;BME280;44891;50.204;8.132;2022-08-19T20:34:49;98145.72;;;21.89;52.85
59106;BME280;44891;50.204;8.132;2022-08-19T20:38:52;98151.84;;;21.81;52.49
59106;BME280;44891;50.204;8.132;2022-08-19T20:42:55;98149.94;;;21.64;53.73
59106;BME280;44891;50.204;8.132;2022-08-19T20:46:57;98150.84;;;21.42;54.40
59106;BME280;44891;50.204;8.132;2022-08-19T20:50:59;98151.19;;;21.58;54.12
59106;BME280;44891;50.204;8.132;2022-08-19T20:55:04;98147.97;;;21.39;54.48
59106;BME280;44891;50.204;8.132;2022-08-19T20:59:06;98146.72;;;21.36;54.59
59106;BME280;44891;50.204;8.132;2022-08-19T21:03:10;98147.25;;;21.16;55.47
59106;BME280;44891;50.204;8.132;2022-08-19T21:07:14;98151.22;;;21.27;55.27
59106;BME280;44891;50.204;8.132;2022-08-19T21:11:18;98151.22;;;21.27;55.29
59106;BME280;44891;50.204;8.132;2022-08-19T21:15:20;98151.09;;;21.32;55.26
59106;BME280;44891;50.204;8.132;2022-08-19T21:19:24;98146.09;;;21.00;56.01
59106;BME280;44891;50.204;8.132;2022-08-19T21:23:27;98149.69;;;20.95;56.25
59106;BME280;44891;50.204;8.132;2022-08-19T21:27:31;98161.88;;;21.18;55.52
59106;BME280;44891;50.204;8.132;2022-08-19T21:31:33;98167.81;;;21.07;55.77